Time;durP1;ratioP1;P1;durP2;ratioP2;P2;SDS_P1;SDS_P2;PMS_P1;PMS_P2;Temp;Humidity;BMP_temperature;BMP_pressure;BME280_temperature;BME280_humidity;BME280_pressure;Samples;Min_cycle;Max_cycle;Signal;HPM_P1;HPM_P2
2021/12/01 00:02:05;;;;;;;;;;;;;;;-3.28;79.57;90390.81;5071654;28;19920;-67
2021/12/01 00:04:30;;;;;;;;;;;;;;;-3.36;79.00;90389.38;5071633;28;19920;-67
2021/12/01 00:06:57;;;;;;;;;;;;;;;-3.51;82.03;90386.56;5071553;28;19966;-67
2021/12/01 00:09:23;;;;;;;;;;;;;;;-3.59;85.16;90381.78;5071569;28;19923;-67
2021/12/01 00:11:48;;;;;;;;;;;;;;;-3.64;86.37;90374.69;5071376;28;19917;-67
2021/12/01 00:14:13;;;;;;;;;;;;;;;-3.78;89.42;90378.63;5071616;28;19912;-67
2021/12/01 00:16:39;;;;;;;;;;;;;;;-3.90;93.93;90390.13;5071425;28;19913;-67
2021/12/01 00:19:04;;;;;;;;;;;;;;;-4.17;97.84;90395.13;5071551;28;19923;-67
2021/12/01 00:21:30;;;;;;;;;;;;;;;-4.32;100.00;90408.63;5071509;28;20314;-67
2021/12/01 00:23:55;;;;;;;;;;;;;;;-4.41;100.00;90413.44;5071275;28;19916;-67
2021/12/01 00:26:21;;;;;;;;;;;;;;;-4.47;100.00;90413.53;5071402;28;20401;-67
2021/12/01 00:28:46;;;;;;;;;;;;;;;-4.44;100.00;90413.06;5071549;28;20356;-67
2021/12/01 00:31:12;;;;;;;;;;;;;;;-4.45;100.00;90414.88;5057315;28;20367;-67
2021/12/01 00:33:39;;;;;;;;;;;;;;;-4.42;100.00;90409.22;5051013;28;19928;-67
2021/12/01 00:36:05;;;;;;;;;;;;;;;-4.52;100.00;90409.84;5051191;28;19917;-66
2021/12/01 00:38:30;;;;;;;;;;;;;;;-4.49;100.00;90413.00;5051286;28;20367;-66
2021/12/01 00:40:56;;;;;;;;;;;;;;;-4.54;100.00;90406.69;5051207;28;19970;-66
2021/12/01 00:43:24;;;;;;;;;;;;;;;-4.59;100.00;90409.19;5051229;28;19936;-66
2021/12/01 00:45:54;;;;;;;;;;;;;;;-4.73;100.00;90394.09;5051097;28;19913;-66
2021/12/01 00:48:19;;;;;;;;;;;;;;;-4.74;100.00;90377.75;5051790;28;19913;-66
2021/12/01 00:50:45;;;;;;;;;;;;;;;-4.82;100.00;90394.47;5054939;28;19943;-67
2021/12/01 00:53:11;;;;;;;;;;;;;;;-4.83;100.00;90382.53;5055014;28;19921;-67
2021/12/01 00:55:37;;;;;;;;;;;;;;;-4.83;100.00;90371.38;5054848;28;20401;-67
2021/12/01 00:58:02;;;;;;;;;;;;;;;-4.89;100.00;90372.28;5054891;28;20000;-67
2021/12/01 01:00:28;;;;;;;;;;;;;;;-4.94;100.00;90364.41;5054857;28;19913;-67
2021/12/01 01:02:56;;;;;;;;;;;;;;;-5.05;100.00;90365.22;5054794;28;19913;-66
2021/12/01 01:05:22;;;;;;;;;;;;;;;-5.07;100.00;90360.25;5054651;28;20387;-67
2021/12/01 01:07:47;;;;;;;;;;;;;;;-5.16;100.00;90367.63;5054644;28;19919;-66
2021/12/01 01:10:34;;;;;;;;;;;;;;;-5.10;100.00;90365.13;5054328;28;19916;-67
2021/12/01 01:18:31;;;;;;;;;;;;;;;-5.01;100.00;90359.34;5054515;28;19920;-66
2021/12/01 01:20:57;;;;;;;;;;;;;;;-5.03;100.00;90360.63;5054467;28;20354;-66
2021/12/01 01:23:22;;;;;;;;;;;;;;;-5.03;100.00;90360.63;5054342;28;20059;-66
2021/12/01 01:25:47;;;;;;;;;;;;;;;-4.99;100.00;90359.13;5054248;28;19912;-67
2021/12/01 01:28:13;;;;;;;;;;;;;;;-4.95;100.00;90362.81;5053099;28;20015;-66
2021/12/01 01:30:38;;;;;;;;;;;;;;;-4.92;100.00;90359.78;5054239;28;19924;-66
2021/12/01 01:33:03;;;;;;;;;;;;;;;-4.96;100.00;90364.63;5054247;28;20019;-66
2021/12/01 01:35:29;;;;;;;;;;;;;;;-4.91;100.00;90338.78;5054064;28;19984;-66
2021/12/01 01:37:54;;;;;;;;;;;;;;;-4.85;100.00;90339.69;5054135;28;19982;-66
2021/12/01 01:40:20;;;;;;;;;;;;;;;-4.77;100.00;90330.72;5054113;28;19919;-66
2021/12/01 01:42:45;;;;;;;;;;;;;;;-4.73;100.00;90331.84;5054245;28;19966;-66
2021/12/01 01:45:11;;;;;;;;;;;;;;;-4.74;100.00;90349.22;5053894;28;19912;-66
2021/12/01 01:47:45;;;;;;;;;;;;;;;-4.75;100.00;90352.03;5053962;28;19912;-66
2021/12/01 01:50:34;;;;;;;;;;;;;;;-4.78;100.00;90360.28;5053892;28;19919;-66
2021/12/01 01:53:00;;;;;;;;;;;;;;;-4.88;100.00;90368.69;5053863;28;19935;-66
2021/12/01 01:55:25;;;;;;;;;;;;;;;-4.81;100.00;90371.91;5053722;28;20386;-66
2021/12/01 01:57:51;;;;;;;;;;;;;;;-4.74;100.00;90385.53;5053758;28;19926;-66
2021/12/01 02:00:16;;;;;;;;;;;;;;;-4.64;100.00;90403.09;5052452;28;19920;-66
2021/12/01 02:02:43;;;;;;;;;;;;;;;-4.55;100.00;90399.94;5207286;23;19920;-66
2021/12/01 02:05:09;;;;;;;;;;;;;;;-4.45;100.00;90408.91;5073342;28;19919;-66
2021/12/01 02:07:35;;;;;;;;;;;;;;;-4.38;100.00;90394.00;5073565;28;19923;-66
2021/12/01 02:10:00;;;;;;;;;;;;;;;-4.32;100.00;90393.84;5073202;28;19927;-66
2021/12/01 02:12:26;;;;;;;;;;;;;;;-4.28;100.00;90389.75;5073152;28;19913;-66
2021/12/01 02:14:51;;;;;;;;;;;;;;;-4.22;100.00;90394.03;5073213;28;20381;-65
2021/12/01 02:17:16;;;;;;;;;;;;;;;-4.23;100.00;90392.47;5073406;28;19919;-66
2021/12/01 02:19:42;;;;;;;;;;;;;;;-4.20;100.00;90374.81;5073137;28;20363;-66
2021/12/01 02:22:07;;;;;;;;;;;;;;;-4.26;100.00;90371.34;5073073;28;19919;-66
2021/12/01 02:24:32;;;;;;;;;;;;;;;-4.37;100.00;90398.94;5072973;28;20394;-66
2021/12/01 02:26:58;;;;;;;;;;;;;;;-4.43;100.00;90406.88;5072932;28;19920;-66
2021/12/01 02:29:25;;;;;;;;;;;;;;;-4.46;100.00;90396.94;5072937;28;19916;-66
2021/12/01 02:31:52;;;;;;;;;;;;;;;-4.45;100.00;90385.53;5072762;28;19965;-66
2021/12/01 02:34:19;;;;;;;;;;;;;;;-4.42;100.00;90383.25;5072793;28;19919;-66
2021/12/01 02:36:49;;;;;;;;;;;;;;;-4.35;100.00;90388.34;5072660;28;19916;-65
2021/12/01 02:39:16;;;;;;;;;;;;;;;-4.31;100.00;90384.25;5072712;28;19918;-66
2021/12/01 02:41:42;;;;;;;;;;;;;;;-4.23;100.00;90370.91;5072419;28;19920;-65
2021/12/01 02:44:08;;;;;;;;;;;;;;;-4.18;100.00;90376.16;5072537;28;19912;-65
2021/12/01 02:46:34;;;;;;;;;;;;;;;-4.21;100.00;90368.84;5072554;28;19923;-66
2021/12/01 02:49:00;;;;;;;;;;;;;;;-4.25;100.00;90367.75;5072586;28;19916;-66
2021/12/01 02:51:28;;;;;;;;;;;;;;;-4.16;100.00;90352.56;5072352;28;20012;-66
2021/12/01 02:53:54;;;;;;;;;;;;;;;-4.33;100.00;90329.16;5072448;28;19916;-66
2021/12/01 02:56:21;;;;;;;;;;;;;;;-4.24;100.00;90351.16;5072397;28;20313;-66
2021/12/01 02:58:47;;;;;;;;;;;;;;;-4.37;100.00;90364.41;5072327;28;19913;-65
2021/12/01 03:01:20;;;;;;;;;;;;;;;-4.31;100.00;90363.47;5072338;28;19918;-66
2021/12/01 03:03:46;;;;;;;;;;;;;;;-4.35;100.00;90357.19;5071894;28;20019;-66
2021/12/01 03:06:12;;;;;;;;;;;;;;;-4.29;100.00;90366.63;5072089;28;20004;-65
2021/12/01 03:08:39;;;;;;;;;;;;;;;-4.26;100.00;90360.94;5072135;28;19912;-66
2021/12/01 03:11:04;;;;;;;;;;;;;;;-4.29;100.00;90358.81;5071781;28;19916;-65
2021/12/01 03:13:30;;;;;;;;;;;;;;;-4.32;100.00;90354.91;5071929;28;19920;-66
2021/12/01 03:15:55;;;;;;;;;;;;;;;-4.26;100.00;90384.31;5072023;28;19958;-66
2021/12/01 03:18:21;;;;;;;;;;;;;;;-4.29;100.00;90371.81;5071956;28;19947;-66
2021/12/01 03:20:47;;;;;;;;;;;;;;;-4.15;100.00;90403.47;5071959;28;19919;-66
2021/12/01 03:23:13;;;;;;;;;;;;;;;-4.06;100.00;90376.88;5071718;28;19912;-66
2021/12/01 03:25:38;;;;;;;;;;;;;;;-4.06;100.00;90386.50;5071834;28;19919;-66
2021/12/01 03:28:05;;;;;;;;;;;;;;;-4.05;100.00;90372.47;5071892;28;19959;-66
2021/12/01 03:30:37;;;;;;;;;;;;;;;-4.18;100.00;90377.97;5071848;28;19912;-66
2021/12/01 03:33:03;;;;;;;;;;;;;;;-4.31;100.00;90381.66;5071670;28;19956;-66
2021/12/01 03:35:29;;;;;;;;;;;;;;;-4.43;100.00;90375.72;5071777;28;19916;-66
2021/12/01 03:37:55;;;;;;;;;;;;;;;-4.58;100.00;90366.63;5071732;28;19919;-66
2021/12/01 03:40:21;;;;;;;;;;;;;;;-4.56;100.00;90402.75;5071620;28;20405;-66
2021/12/01 03:42:46;;;;;;;;;;;;;;;-4.59;100.00;90372.84;5071382;28;19912;-66
2021/12/01 03:45:13;;;;;;;;;;;;;;;-4.56;100.00;90376.81;5071621;28;19913;-66
2021/12/01 03:47:38;;;;;;;;;;;;;;;-4.56;100.00;90384.59;5071521;28;21121;-66
2021/12/01 03:50:04;;;;;;;;;;;;;;;-4.53;100.00;90391.91;5071559;28;19924;-65
2021/12/01 03:52:29;;;;;;;;;;;;;;;-4.50;100.00;90393.25;5071359;28;20352;-66
2021/12/01 03:54:54;;;;;;;;;;;;;;;-4.35;100.00;90433.25;5071490;28;19964;-66
2021/12/01 03:57:20;;;;;;;;;;;;;;;-4.33;100.00;90433.03;5071486;28;19913;-66
2021/12/01 03:59:45;;;;;;;;;;;;;;;-4.30;100.00;90435.94;5071441;28;20397;-66
2021/12/01 04:02:11;;;;;;;;;;;;;;;-4.27;100.00;90417.28;5071179;28;20415;-65
2021/12/01 04:04:36;;;;;;;;;;;;;;;-4.21;100.00;90446.75;5071331;28;19916;-66
2021/12/01 04:07:02;;;;;;;;;;;;;;;-4.22;100.00;90450.38;5071301;28;19912;-66
2021/12/01 04:09:27;;;;;;;;;;;;;;;-4.18;100.00;90432.50;5071297;28;20412;-66
2021/12/01 04:11:53;;;;;;;;;;;;;;;-4.19;100.00;90421.34;5071280;28;19985;-66
2021/12/01 04:14:18;;;;;;;;;;;;;;;-4.22;100.00;90391.44;5055717;28;20408;-67
2021/12/01 04:16:44;;;;;;;;;;;;;;;-4.12;100.00;90398.59;5051065;28;19921;-68
2021/12/01 04:19:09;;;;;;;;;;;;;;;-4.03;100.00;90397.19;5051003;28;19923;-65
2021/12/01 04:21:35;;;;;;;;;;;;;;;-3.97;100.00;90419.63;5050911;28;19962;-65
2021/12/01 04:24:01;;;;;;;;;;;;;;;-4.01;100.00;90415.13;5052751;28;19939;-68
2021/12/01 04:26:28;;;;;;;;;;;;;;;-4.01;100.00;90402.94;5055019;28;19912;-67
2021/12/01 04:28:55;;;;;;;;;;;;;;;-3.92;100.00;90414.53;5054523;28;20037;-67
2021/12/01 04:31:21;;;;;;;;;;;;;;;-3.90;100.00;90421.31;5053069;28;19913;-66
2021/12/01 04:33:47;;;;;;;;;;;;;;;-3.91;100.00;90425.72;5054741;28;19920;-66
2021/12/01 04:36:14;;;;;;;;;;;;;;;-3.97;100.00;90417.03;5054638;28;19967;-66
2021/12/01 04:38:40;;;;;;;;;;;;;;;-3.87;100.00;90415.63;5054688;28;20314;-66
2021/12/01 04:41:07;;;;;;;;;;;;;;;-3.90;100.00;90424.69;5054415;28;19913;-66
2021/12/01 04:43:33;;;;;;;;;;;;;;;-3.85;100.00;90421.38;5054519;28;20402;-66
2021/12/01 04:45:59;;;;;;;;;;;;;;;-3.84;100.00;90425.56;5054158;28;19971;-66
2021/12/01 04:48:26;;;;;;;;;;;;;;;-3.82;100.00;90411.31;5054575;28;19917;-66
2021/12/01 04:50:51;;;;;;;;;;;;;;;-3.74;100.00;90430.94;5054582;28;19940;-66
2021/12/01 04:53:17;;;;;;;;;;;;;;;-3.70;100.00;90411.22;5054337;28;19955;-66
2021/12/01 04:55:43;;;;;;;;;;;;;;;-3.62;100.00;90410.84;5054408;28;20279;-66
2021/12/01 04:58:09;;;;;;;;;;;;;;;-3.58;100.00;90413.75;5054388;28;19919;-66
2021/12/01 05:00:36;;;;;;;;;;;;;;;-3.47;100.00;90415.47;5053934;28;19916;-66
2021/12/01 05:03:02;;;;;;;;;;;;;;;-3.34;100.00;90435.94;5053942;28;19970;-66
2021/12/01 05:05:27;;;;;;;;;;;;;;;-3.29;100.00;90443.06;5054313;28;19944;-66
2021/12/01 05:07:53;;;;;;;;;;;;;;;-3.22;100.00;90439.25;5054175;28;19917;-67
2021/12/01 05:10:19;;;;;;;;;;;;;;;-3.14;100.00;90453.69;5054122;28;19924;-67
2021/12/01 05:12:44;;;;;;;;;;;;;;;-3.04;100.00;90446.78;5054182;28;19999;-67
2021/12/01 05:15:10;;;;;;;;;;;;;;;-2.87;100.00;90457.16;5054299;28;20287;-67
2021/12/01 05:17:35;;;;;;;;;;;;;;;-2.80;100.00;90455.19;5054218;28;20054;-67
2021/12/01 05:20:01;;;;;;;;;;;;;;;-2.71;100.00;90458.94;5054271;28;20011;-67
2021/12/01 05:22:27;;;;;;;;;;;;;;;-2.58;100.00;90470.03;5052677;28;20384;-67
2021/12/01 05:24:52;;;;;;;;;;;;;;;-2.50;100.00;90467.03;5054057;28;20521;-67
2021/12/01 05:27:18;;;;;;;;;;;;;;;-2.39;100.00;90447.88;5054122;28;19939;-67
2021/12/01 05:29:43;;;;;;;;;;;;;;;-2.20;100.00;90451.78;5054042;28;19921;-67
2021/12/01 05:32:09;;;;;;;;;;;;;;;-2.18;100.00;90464.56;5053893;28;19920;-67
2021/12/01 05:34:34;;;;;;;;;;;;;;;-2.15;100.00;90467.44;5053537;28;20003;-68
2021/12/01 05:37:00;;;;;;;;;;;;;;;-2.11;100.00;90467.75;5053849;28;19913;-68
2021/12/01 05:39:28;;;;;;;;;;;;;;;-1.96;100.00;90472.34;5053823;28;19956;-67
2021/12/01 05:41:55;;;;;;;;;;;;;;;-1.87;100.00;90460.44;5053739;28;20806;-67
2021/12/01 05:44:20;;;;;;;;;;;;;;;-1.78;100.00;90450.34;5052384;28;19913;-67
2021/12/01 05:46:46;;;;;;;;;;;;;;;-1.80;100.00;90461.03;5053738;28;19919;-67
2021/12/01 05:49:11;;;;;;;;;;;;;;;-1.70;100.00;90462.97;5053707;28;19913;-67
2021/12/01 05:51:36;;;;;;;;;;;;;;;-1.71;100.00;90458.78;5053553;28;20440;-67
2021/12/01 05:54:02;;;;;;;;;;;;;;;-1.68;100.00;90469.50;5053661;28;19912;-67
2021/12/01 05:56:28;;;;;;;;;;;;;;;-1.70;100.00;90476.78;5053530;28;20007;-67
2021/12/01 05:58:53;;;;;;;;;;;;;;;-1.61;100.00;90475.28;5052184;28;20477;-67
2021/12/01 06:01:19;;;;;;;;;;;;;;;-1.50;100.00;90476.19;5052110;28;20011;-67
2021/12/01 06:03:44;;;;;;;;;;;;;;;-1.36;100.00;90492.22;5053194;28;20410;-68
2021/12/01 06:06:10;;;;;;;;;;;;;;;-1.29;100.00;90518.88;5053396;28;19935;-68
2021/12/01 06:08:35;;;;;;;;;;;;;;;-1.22;100.00;90504.59;5053370;28;19919;-67
2021/12/01 06:11:00;;;;;;;;;;;;;;;-1.02;100.00;90516.25;5051991;28;19913;-68
2021/12/01 06:13:26;;;;;;;;;;;;;;;-0.96;100.00;90507.41;5053153;28;20003;-67
2021/12/01 06:15:51;;;;;;;;;;;;;;;-0.82;100.00;90481.66;5051862;28;19917;-67
2021/12/01 06:18:17;;;;;;;;;;;;;;;-0.73;100.00;90490.59;5053146;28;19919;-67
2021/12/01 06:20:42;;;;;;;;;;;;;;;-0.53;100.00;90503.78;5053120;28;19974;-68
2021/12/01 06:23:09;;;;;;;;;;;;;;;-0.56;100.00;90499.06;5052917;28;19917;-68
2021/12/01 06:25:35;;;;;;;;;;;;;;;-0.21;100.00;90493.25;5052978;28;20007;-67
2021/12/01 06:28:00;;;;;;;;;;;;;;;0.13;96.34;90496.25;5053012;28;20366;-67
2021/12/01 06:30:26;;;;;;;;;;;;;;;0.22;95.10;90507.03;5052937;28;20000;-67
2021/12/01 06:32:52;;;;;;;;;;;;;;;0.22;100.00;90492.13;5052681;28;19913;-67
2021/12/01 06:35:18;;;;;;;;;;;;;;;0.39;95.91;90480.66;5052724;28;20369;-67
2021/12/01 06:37:44;;;;;;;;;;;;;;;0.47;92.72;90474.91;5052785;28;20072;-67
2021/12/01 06:40:09;;;;;;;;;;;;;;;0.62;93.06;90482.78;5052774;28;19924;-67
2021/12/01 06:42:35;;;;;;;;;;;;;;;1.03;92.37;90486.22;5052491;28;19919;-67
2021/12/01 06:45:04;;;;;;;;;;;;;;;1.48;87.76;90480.16;5052570;28;19983;-67
2021/12/01 06:47:29;;;;;;;;;;;;;;;1.65;87.02;90479.88;5051778;28;20015;-67
2021/12/01 06:49:54;;;;;;;;;;;;;;;1.75;88.71;90497.44;5052589;28;20004;-67
2021/12/01 06:52:20;;;;;;;;;;;;;;;1.89;85.53;90493.16;5052457;28;19927;-67
2021/12/01 06:54:46;;;;;;;;;;;;;;;2.15;84.47;90493.88;5052530;28;19916;-67
2021/12/01 06:57:11;;;;;;;;;;;;;;;2.30;86.06;90514.03;5051457;28;19953;-67
2021/12/01 06:59:36;;;;;;;;;;;;;;;2.53;84.80;90523.94;5052271;28;19919;-68
2021/12/01 07:02:02;;;;;;;;;;;;;;;2.65;84.55;90506.00;5051989;28;19917;-67
2021/12/01 07:04:27;;;;;;;;;;;;;;;2.92;83.79;90517.94;5052234;28;19913;-68
2021/12/01 07:06:52;;;;;;;;;;;;;;;3.62;81.25;90542.13;5052217;28;19935;-67
2021/12/01 07:09:19;;;;;;;;;;;;;;;3.87;77.37;90546.41;5052223;28;19916;-68
2021/12/01 07:11:45;;;;;;;;;;;;;;;4.25;76.68;90551.81;5052425;28;20337;-68
2021/12/01 07:14:11;;;;;;;;;;;;;;;4.58;74.95;90531.72;5052275;28;19944;-67
2021/12/01 07:16:36;;;;;;;;;;;;;;;8.23;65.38;90549.91;5052235;28;20398;-67
2021/12/01 07:19:02;;;;;;;;;;;;;;;9.58;56.34;90537.72;5052240;28;20318;-67
2021/12/01 07:21:27;;;;;;;;;;;;;;;10.83;51.99;90533.19;5052051;28;20378;-67
2021/12/01 07:23:52;;;;;;;;;;;;;;;10.78;52.00;90525.38;5051995;28;19913;-67
2021/12/01 07:26:18;;;;;;;;;;;;;;;10.26;51.98;90538.81;5051972;28;19924;-67
2021/12/01 07:28:43;;;;;;;;;;;;;;;7.76;57.65;90529.03;5052066;28;19984;-67
2021/12/01 07:31:08;;;;;;;;;;;;;;;6.37;61.41;90509.50;5051771;28;19992;-67
2021/12/01 07:33:34;;;;;;;;;;;;;;;4.98;66.30;90528.56;5050799;28;19978;-67
2021/12/01 07:35:59;;;;;;;;;;;;;;;6.05;66.41;90510.31;5051709;28;19913;-67
2021/12/01 07:38:25;;;;;;;;;;;;;;;7.84;61.69;90519.56;5051784;28;19966;-67
2021/12/01 07:40:50;;;;;;;;;;;;;;;8.40;61.79;90528.81;5051760;28;19951;-66
2021/12/01 07:43:16;;;;;;;;;;;;;;;6.80;69.73;90518.69;5051665;28;19913;-66
2021/12/01 07:45:43;;;;;;;;;;;;;;;6.20;91.50;90526.69;5051698;28;20287;-66
2021/12/01 07:48:10;;;;;;;;;;;;;;;6.30;73.73;90531.78;5051703;28;19913;-67
2021/12/01 07:50:35;;;;;;;;;;;;;;;5.46;73.57;90522.34;5051690;28;20392;-65
2021/12/01 07:53:00;;;;;;;;;;;;;;;4.80;75.04;90514.28;5051524;28;19913;-66
2021/12/01 07:55:26;;;;;;;;;;;;;;;4.05;77.02;90532.53;5051472;28;20309;-65
2021/12/01 07:57:51;;;;;;;;;;;;;;;3.79;80.68;90523.31;5051417;28;19913;-66
2021/12/01 08:00:16;;;;;;;;;;;;;;;4.25;85.80;90538.66;5051426;28;19986;-66
2021/12/01 08:02:42;;;;;;;;;;;;;;;3.99;81.51;90535.50;5051094;28;19924;-67
2021/12/01 08:05:08;;;;;;;;;;;;;;;3.50;82.39;90542.50;5051350;28;19919;-66
2021/12/01 08:07:38;;;;;;;;;;;;;;;3.41;85.70;90528.38;5051302;28;20374;-67
2021/12/01 08:10:05;;;;;;;;;;;;;;;3.69;85.96;90529.47;5051320;28;19979;-67
2021/12/01 08:12:32;;;;;;;;;;;;;;;3.69;82.66;90528.66;5051285;28;19916;-66
2021/12/01 08:14:57;;;;;;;;;;;;;;;3.75;85.99;90544.13;5050035;28;19925;-67
2021/12/01 08:17:23;;;;;;;;;;;;;;;3.61;82.96;90537.94;5051249;28;19919;-67
2021/12/01 08:19:48;;;;;;;;;;;;;;;3.62;84.16;90542.13;5051385;28;19919;-67
2021/12/01 08:22:13;;;;;;;;;;;;;;;3.77;81.43;90535.94;5051174;28;19936;-66
2021/12/01 08:24:39;;;;;;;;;;;;;;;4.39;80.84;90547.44;5051204;28;19969;-67
2021/12/01 08:27:05;;;;;;;;;;;;;;;4.38;78.90;90546.66;5051341;28;20015;-67
2021/12/01 08:29:30;;;;;;;;;;;;;;;4.74;78.09;90543.63;5051298;28;20015;-67
2021/12/01 08:31:56;;;;;;;;;;;;;;;6.46;76.69;90552.63;5051240;28;20071;-67
2021/12/01 08:34:21;;;;;;;;;;;;;;;8.39;63.76;90567.78;5051285;28;19912;-67
2021/12/01 08:36:47;;;;;;;;;;;;;;;9.91;57.83;90554.75;5051261;28;19913;-65
2021/12/01 08:39:13;;;;;;;;;;;;;;;9.00;61.88;90560.09;5051168;28;19912;-65
2021/12/01 08:41:38;;;;;;;;;;;;;;;10.96;54.85;90569.44;5050990;28;19924;-65
2021/12/01 08:44:03;;;;;;;;;;;;;;;8.97;58.95;90566.00;5050987;28;19972;-65
2021/12/01 08:46:29;;;;;;;;;;;;;;;8.39;59.09;90569.66;5051366;28;19923;-65
2021/12/01 08:48:56;;;;;;;;;;;;;;;8.25;60.21;90582.94;5051169;28;19916;-67
2021/12/01 08:51:21;;;;;;;;;;;;;;;7.67;62.92;90577.69;5050935;28;20302;-67
2021/12/01 08:53:47;;;;;;;;;;;;;;;11.42;54.21;90581.16;5050977;28;19935;-65
2021/12/01 08:56:12;;;;;;;;;;;;;;;11.67;51.83;90577.53;5050968;28;20382;-65
2021/12/01 08:58:37;;;;;;;;;;;;;;;11.51;51.45;90571.22;5049612;28;20337;-65
2021/12/01 09:01:03;;;;;;;;;;;;;;;12.10;51.69;90575.72;5050870;28;20302;-65
2021/12/01 09:03:28;;;;;;;;;;;;;;;13.97;46.39;90564.38;5050560;28;19924;-65
2021/12/01 09:05:54;;;;;;;;;;;;;;;14.64;45.19;90573.53;5051397;28;19921;-65
2021/12/01 09:08:21;;;;;;;;;;;;;;;14.13;44.42;90555.63;5049538;28;19952;-66
2021/12/01 09:10:47;;;;;;;;;;;;;;;14.98;44.22;90566.00;5053467;28;19936;-65
2021/12/01 09:13:13;;;;;;;;;;;;;;;15.06;43.38;90572.34;5054434;28;19970;-66
2021/12/01 09:15:39;;;;;;;;;;;;;;;15.39;41.55;90569.34;5054292;28;20367;-65
2021/12/01 09:18:05;;;;;;;;;;;;;;;16.02;42.12;90561.25;5054585;28;20406;-66
2021/12/01 09:20:30;;;;;;;;;;;;;;;14.84;43.01;90555.72;5054262;28;19935;-66
2021/12/01 09:22:55;;;;;;;;;;;;;;;15.36;42.32;90560.09;5054112;28;20382;-66
2021/12/01 09:25:21;;;;;;;;;;;;;;;15.68;42.07;90552.06;5054117;28;20394;-66
2021/12/01 09:27:48;;;;;;;;;;;;;;;15.41;41.77;90543.75;5054222;28;19913;-66
2021/12/01 09:30:15;;;;;;;;;;;;;;;14.66;42.87;90549.88;5054088;28;19913;-66
2021/12/01 09:32:41;;;;;;;;;;;;;;;13.88;44.40;90554.91;5054102;28;19913;-66
2021/12/01 09:35:07;;;;;;;;;;;;;;;14.02;44.86;90553.41;5054053;28;19920;-66
2021/12/01 09:37:32;;;;;;;;;;;;;;;12.55;46.18;90555.22;5054139;28;19913;-66
2021/12/01 09:39:58;;;;;;;;;;;;;;;12.78;47.20;90547.63;5054012;28;20397;-66
2021/12/01 09:42:24;;;;;;;;;;;;;;;13.04;47.11;90551.88;5053979;28;19917;-66
2021/12/01 09:44:49;;;;;;;;;;;;;;;14.07;44.93;90542.50;5053919;28;20006;-66
2021/12/01 09:47:19;;;;;;;;;;;;;;;14.59;43.20;90535.53;5053981;28;19916;-66
2021/12/01 09:49:44;;;;;;;;;;;;;;;14.56;42.92;90550.41;5053882;28;19950;-66
2021/12/01 09:52:11;;;;;;;;;;;;;;;14.51;44.08;90544.50;5053749;28;19919;-66
2021/12/01 09:54:38;;;;;;;;;;;;;;;15.40;40.40;90533.38;5054228;28;20382;-66
2021/12/01 09:57:04;;;;;;;;;;;;;;;14.52;41.56;90538.03;5053919;28;19913;-66
2021/12/01 09:59:29;;;;;;;;;;;;;;;14.58;40.21;90526.72;5053809;28;20317;-66
2021/12/01 10:01:55;;;;;;;;;;;;;;;14.78;42.16;90530.31;5053323;28;19917;-66
2021/12/01 10:04:20;;;;;;;;;;;;;;;15.86;39.86;90527.19;5053903;28;19916;-66
2021/12/01 10:06:45;;;;;;;;;;;;;;;15.00;40.50;90534.31;5053715;28;20354;-66
2021/12/01 10:09:13;;;;;;;;;;;;;;;15.22;42.07;90532.94;5053713;28;19913;-66
2021/12/01 10:11:41;;;;;;;;;;;;;;;14.73;42.47;90540.50;5053362;28;19938;-67
2021/12/01 10:14:15;;;;;;;;;;;;;;;14.97;41.75;90532.31;5053461;28;19913;-66
2021/12/01 10:16:44;;;;;;;;;;;;;;;14.59;40.54;90533.63;5053521;28;19913;-66
2021/12/01 10:19:11;;;;;;;;;;;;;;;15.50;39.70;90522.91;5053441;28;20006;-66
2021/12/01 10:21:44;;;;;;;;;;;;;;;14.18;40.46;90528.63;5052138;28;20444;-66
2021/12/01 10:24:17;;;;;;;;;;;;;;;14.59;39.97;90528.28;5053252;28;20059;-66
2021/12/01 10:26:46;;;;;;;;;;;;;;;13.72;40.77;90506.69;5053345;28;19913;-66
2021/12/01 10:29:14;;;;;;;;;;;;;;;13.11;42.29;90517.41;5053181;28;19913;-67
2021/12/01 10:31:44;;;;;;;;;;;;;;;14.13;41.52;90518.97;5051751;28;20409;-67
2021/12/01 10:34:17;;;;;;;;;;;;;;;13.96;41.47;90512.00;5053024;28;19917;-66
2021/12/01 10:36:42;;;;;;;;;;;;;;;14.71;38.98;90508.72;5053000;28;19966;-68
2021/12/01 10:39:08;;;;;;;;;;;;;;;14.13;41.23;90512.84;5053099;28;19917;-68
2021/12/01 10:41:36;;;;;;;;;;;;;;;13.54;41.91;90510.72;5052882;28;20023;-67
2021/12/01 10:44:07;;;;;;;;;;;;;;;14.55;40.59;90505.22;5053067;28;20319;-70
2021/12/01 10:46:41;;;;;;;;;;;;;;;13.82;40.60;90516.94;5052939;28;20388;-66
2021/12/01 10:49:07;;;;;;;;;;;;;;;13.12;41.58;90527.00;5052835;28;19943;-67
2021/12/01 10:51:37;;;;;;;;;;;;;;;13.97;40.67;90524.25;5052711;28;19917;-66
2021/12/01 10:54:02;;;;;;;;;;;;;;;13.16;41.77;90507.28;5052748;28;20287;-68
2021/12/01 10:56:28;;;;;;;;;;;;;;;13.71;40.50;90510.47;5052650;28;20015;-67
2021/12/01 10:58:53;;;;;;;;;;;;;;;13.32;41.45;90504.75;5052672;28;20023;-66
2021/12/01 11:01:24;;;;;;;;;;;;;;;13.36;41.69;90491.50;5052480;28;19917;-67
2021/12/01 11:03:51;;;;;;;;;;;;;;;13.49;40.14;90499.16;5052348;28;19964;-67
2021/12/01 11:06:21;;;;;;;;;;;;;;;13.84;40.53;90493.31;5052440;28;19913;-67
2021/12/01 11:08:48;;;;;;;;;;;;;;;13.09;41.95;90501.69;5052389;28;20310;-67
2021/12/01 11:11:15;;;;;;;;;;;;;;;12.98;42.80;90502.50;5052312;28;19912;-69
2021/12/01 11:13:42;;;;;;;;;;;;;;;14.13;40.21;90502.13;5052367;28;19970;-71
2021/12/01 11:16:09;;;;;;;;;;;;;;;13.35;42.77;90497.97;5052329;28;19912;-68
2021/12/01 11:18:35;;;;;;;;;;;;;;;13.77;41.75;90496.56;5052278;28;19917;-68
2021/12/01 11:21:05;;;;;;;;;;;;;;;14.77;39.09;90501.19;5050861;28;19912;-69
2021/12/01 11:23:32;;;;;;;;;;;;;;;14.05;40.15;90498.50;5052181;28;19956;-69
2021/12/01 11:26:01;;;;;;;;;;;;;;;14.05;39.94;90488.56;5052176;28;19912;-69
2021/12/01 11:28:27;;;;;;;;;;;;;;;13.72;40.82;90479.97;5052011;28;20378;-67
2021/12/01 11:30:55;;;;;;;;;;;;;;;14.62;38.99;90494.69;5051982;28;20411;-68
2021/12/01 11:33:22;;;;;;;;;;;;;;;15.23;38.52;90496.97;5051685;28;19913;-68
2021/12/01 11:35:48;;;;;;;;;;;;;;;14.63;40.25;90491.69;5052022;28;19919;-67
2021/12/01 11:38:14;;;;;;;;;;;;;;;13.95;40.09;90498.97;5051315;28;19912;-69
2021/12/01 11:40:40;;;;;;;;;;;;;;;14.54;40.42;90488.41;5052103;28;19917;-68
2021/12/01 11:43:08;;;;;;;;;;;;;;;14.96;39.67;90493.25;5051775;28;19936;-67
2021/12/01 11:45:35;;;;;;;;;;;;;;;15.39;39.58;90484.34;5051878;28;19920;-68
2021/12/01 11:48:00;;;;;;;;;;;;;;;16.83;36.57;90494.22;5051891;28;20003;-68
2021/12/01 11:50:33;;;;;;;;;;;;;;;14.72;39.16;90490.75;5051661;28;20007;-67
2021/12/01 11:53:13;;;;;;;;;;;;;;;15.24;38.18;90477.88;5052035;28;19913;-67
2021/12/01 11:55:59;;;;;;;;;;;;;;;16.23;37.42;90483.09;5051664;28;19913;-69
2021/12/01 11:58:43;;;;;;;;;;;;;;;14.85;38.77;90470.81;5051947;28;19943;-67
2021/12/01 12:01:21;;;;;;;;;;;;;;;16.30;37.25;90475.97;5051524;28;19920;-68
2021/12/01 12:04:04;;;;;;;;;;;;;;;14.60;40.31;90478.97;5050097;28;20298;-69
2021/12/01 12:06:52;;;;;;;;;;;;;;;14.28;40.72;90474.66;5051621;28;19917;-67
2021/12/01 12:09:18;;;;;;;;;;;;;;;14.35;39.94;90470.25;5051792;28;19935;-67
2021/12/01 12:11:47;;;;;;;;;;;;;;;14.50;40.48;90463.41;5051476;28;20047;-68
2021/12/01 12:14:15;;;;;;;;;;;;;;;14.70;39.81;90463.53;5051558;28;20417;-67
2021/12/01 12:16:59;;;;;;;;;;;;;;;14.09;39.91;90462.69;5051543;28;19939;-67
2021/12/01 12:19:43;;;;;;;;;;;;;;;14.65;39.68;90461.88;5051441;28;19987;-68
2021/12/01 12:22:08;;;;;;;;;;;;;;;15.04;39.43;90467.44;5051392;28;19981;-67
2021/12/01 12:24:41;;;;;;;;;;;;;;;12.95;43.28;90471.13;5051441;28;20378;-67
2021/12/01 12:27:27;;;;;;;;;;;;;;;13.80;41.71;90465.69;5051405;28;20313;-67
2021/12/01 12:29:52;;;;;;;;;;;;;;;12.92;42.67;90474.44;5051260;28;19957;-69
2021/12/01 12:32:19;;;;;;;;;;;;;;;12.17;45.96;90472.78;5051301;28;19920;-69
2021/12/01 12:34:52;;;;;;;;;;;;;;;11.81;46.26;90478.72;5051362;28;19996;-67
2021/12/01 12:37:22;;;;;;;;;;;;;;;12.59;46.51;90477.97;5051129;28;19917;-68
2021/12/01 12:39:47;;;;;;;;;;;;;;;12.10;46.76;90479.72;5051267;28;19919;-68
2021/12/01 12:42:13;;;;;;;;;;;;;;;11.50;46.72;90478.31;5050856;28;19995;-67
2021/12/01 12:44:38;;;;;;;;;;;;;;;12.51;45.76;90487.63;5050881;28;20306;-68
2021/12/01 12:47:05;;;;;;;;;;;;;;;12.50;45.55;90482.63;5055092;28;19917;-67